createdAt,value
2018-04-16T00:00:07.238Z,0
2018-04-16T00:01:07.477Z,0
2018-04-16T00:02:07.470Z,0
2018-04-16T00:03:07.461Z,0
2018-04-16T00:04:07.462Z,0
2018-04-16T00:05:06.945Z,0
2018-04-16T00:06:07.513Z,0
2018-04-16T00:07:07.177Z,0
2018-04-16T00:08:06.655Z,0
2018-04-16T00:09:07.158Z,0
2018-04-16T00:10:07.416Z,0
2018-04-16T00:11:06.619Z,0
2018-04-16T00:12:07.387Z,0
2018-04-16T00:13:07.127Z,0
2018-04-16T00:14:07.106Z,0
2018-04-16T00:15:07.102Z,0
2018-04-16T00:16:07.096Z,0
2018-04-16T00:17:06.576Z,0
2018-04-16T00:18:07.353Z,0
2018-04-16T00:19:07.074Z,0
2018-04-16T00:20:06.802Z,0
2018-04-16T00:21:06.796Z,0
2018-04-16T00:22:06.537Z,0
2018-04-16T00:23:06.795Z,0
2018-04-16T00:24:07.297Z,0
2018-04-16T00:25:07.038Z,0
2018-04-16T00:26:07.287Z,0
2018-04-16T00:27:07.262Z,0
2018-04-16T00:28:06.742Z,0
2018-04-16T00:29:06.990Z,0
2018-04-16T00:30:06.989Z,0
2018-04-16T00:31:06.716Z,0
2018-04-16T00:32:06.453Z,0
2018-04-16T00:33:06.970Z,0
2018-04-16T00:34:07.212Z,0
2018-04-16T00:35:07.199Z,0
2018-04-16T00:36:06.935Z,0
2018-04-16T00:37:06.944Z,0
2018-04-16T00:38:06.688Z,0
2018-04-16T00:39:06.919Z,0
2018-04-16T00:40:06.653Z,0
2018-04-16T00:41:07.166Z,0
2018-04-16T00:42:06.885Z,0
2018-04-16T00:43:07.151Z,0
2018-04-16T00:44:07.134Z,0
2018-04-16T00:45:06.870Z,0
2018-04-16T00:46:06.602Z,0
2018-04-16T00:47:07.108Z,0
2018-04-16T00:48:07.096Z,0
2018-04-16T00:49:06.575Z,0
2018-04-16T00:50:06.830Z,0
2018-04-16T00:51:07.079Z,0
2018-04-16T00:52:06.805Z,0
2018-04-16T00:53:06.657Z,0
2018-04-16T00:54:06.534Z,0
2018-04-16T00:55:06.530Z,0
2018-04-16T00:56:06.263Z,0
2018-04-16T00:57:06.520Z,0
2018-04-16T00:58:06.778Z,0
2018-04-16T00:59:06.248Z,0
2018-04-16T01:00:07.007Z,0
2018-04-16T01:01:06.479Z,0
2018-04-16T01:02:06.732Z,0
2018-04-16T01:03:06.463Z,0
2018-04-16T01:04:06.976Z,0
2018-04-16T01:05:06.968Z,0
2018-04-16T01:06:06.699Z,0
2018-04-16T01:07:06.703Z,0
2018-04-16T01:08:06.421Z,0
2018-04-16T01:09:06.422Z,0
2018-04-16T01:10:06.668Z,0
2018-04-16T01:11:06.657Z,0
2018-04-16T01:12:06.901Z,0
2018-04-16T01:13:06.642Z,0
2018-04-16T01:14:06.632Z,0
2018-04-16T01:15:06.881Z,0
2018-04-16T01:16:06.622Z,0
2018-04-16T01:17:06.355Z,0
2018-04-16T01:18:06.606Z,0
2018-04-16T01:19:06.606Z,0
2018-04-16T01:20:06.844Z,0
2018-04-16T01:21:06.317Z,0
2018-04-16T01:22:06.062Z,0
2018-04-16T01:23:06.559Z,0
2018-04-16T01:24:06.820Z,0
2018-04-16T01:25:06.820Z,0
2018-04-16T01:26:06.580Z,0
2018-04-16T01:27:06.532Z,0
2018-04-16T01:28:06.550Z,0
2018-04-16T01:29:06.518Z,0
2018-04-16T01:30:06.259Z,0
2018-04-16T01:31:06.495Z,0
2018-04-16T01:32:06.764Z,0
2018-04-16T01:33:06.224Z,0
2018-04-16T01:34:06.479Z,0
2018-04-16T01:35:06.260Z,0
2018-04-16T01:36:06.199Z,0
2018-04-16T01:37:06.707Z,0
2018-04-16T01:38:06.442Z,0
2018-04-16T01:39:06.176Z,0
2018-04-16T01:40:06.167Z,0
2018-04-16T01:41:05.904Z,0
2018-04-16T01:42:06.152Z,0
2018-04-16T01:43:06.408Z,0
2018-04-16T01:44:06.392Z,0
2018-04-16T01:45:06.391Z,0
2018-04-16T01:46:05.865Z,0
2018-04-16T01:47:06.373Z,0
2018-04-16T01:48:05.841Z,0
2018-04-16T01:49:06.366Z,0
2018-04-16T01:50:05.825Z,0
2018-04-16T01:51:06.338Z,0
2018-04-16T01:52:06.589Z,0
2018-04-16T01:53:06.063Z,0
2018-04-16T01:54:05.919Z,0
2018-04-16T01:55:06.556Z,0
2018-04-16T01:56:06.046Z,0
2018-04-16T01:57:06.122Z,0
2018-04-16T01:58:06.031Z,0
2018-04-16T01:59:06.269Z,0
2018-04-16T02:00:06.114Z,0
2018-04-16T02:01:06.265Z,0
2018-04-16T02:02:06.512Z,0
2018-04-16T02:03:06.328Z,0
2018-04-16T02:04:06.503Z,0
2018-04-16T02:05:06.238Z,0
2018-04-16T02:06:05.962Z,0
2018-04-16T02:07:06.205Z,0
2018-04-16T02:08:06.456Z,0
2018-04-16T02:09:06.194Z,0
2018-04-16T02:10:06.197Z,0
2018-04-16T02:11:06.178Z,0
2018-04-16T02:12:05.916Z,0
2018-04-16T02:13:06.169Z,0
2018-04-16T02:14:06.486Z,0
2018-04-16T02:15:05.883Z,0
2018-04-16T02:16:06.131Z,0
2018-04-16T02:17:06.383Z,0
2018-04-16T02:18:06.115Z,0
2018-04-16T02:19:06.360Z,0
2018-04-16T02:20:06.089Z,0
2018-04-16T02:21:06.156Z,0
2018-04-16T02:22:05.830Z,0
2018-04-16T02:23:06.394Z,0
2018-04-16T02:24:06.342Z,0
2018-04-16T02:25:06.314Z,0
2018-04-16T02:26:06.067Z,0
2018-04-16T02:27:06.045Z,0
2018-04-16T02:28:06.298Z,0
2018-04-16T02:29:06.024Z,0
2018-04-16T02:30:05.759Z,0
2018-04-16T02:31:06.016Z,0
2018-04-16T02:32:05.743Z,0
2018-04-16T02:33:06.284Z,0
2018-04-16T02:34:05.988Z,0
2018-04-16T02:35:05.994Z,0
2018-04-16T02:36:05.717Z,0
2018-04-16T02:37:05.969Z,0
2018-04-16T02:38:06.223Z,0
2018-04-16T02:39:05.690Z,0
2018-04-16T02:40:05.680Z,0
2018-04-16T02:41:05.933Z,0
2018-04-16T02:42:05.404Z,0
2018-04-16T02:43:05.906Z,0
2018-04-16T02:44:06.162Z,0
2018-04-16T02:45:05.682Z,0
2018-04-16T02:46:05.891Z,0
2018-04-16T02:47:05.628Z,0
2018-04-16T02:48:05.874Z,0
2018-04-16T02:49:06.149Z,0
2018-04-16T02:50:05.602Z,0
2018-04-16T02:51:05.592Z,0
2018-04-16T02:52:06.114Z,0
2018-04-16T02:53:05.832Z,0
2018-04-16T02:54:06.093Z,0
2018-04-16T02:55:05.618Z,0
2018-04-16T02:56:05.560Z,0
2018-04-16T02:57:06.075Z,0
2018-04-16T02:58:05.786Z,0
2018-04-16T02:59:06.089Z,0
2018-04-16T03:00:06.037Z,0
2018-04-16T03:01:05.773Z,0
2018-04-16T03:02:05.771Z,0
2018-04-16T03:03:05.508Z,0
2018-04-16T03:04:05.745Z,0
2018-04-16T03:05:05.995Z,0
2018-04-16T03:06:05.468Z,0
2018-04-16T03:07:05.457Z,0
2018-04-16T03:08:05.458Z,0
2018-04-16T03:09:05.963Z,0
2018-04-16T03:10:05.448Z,0
2018-04-16T03:11:05.948Z,0
2018-04-16T03:12:05.937Z,0
2018-04-16T03:13:05.671Z,0
2018-04-16T03:14:05.935Z,0
2018-04-16T03:15:05.398Z,0
2018-04-16T03:16:05.392Z,0
2018-04-16T03:17:05.644Z,0
2018-04-16T03:18:05.371Z,0
2018-04-16T03:19:05.368Z,0
2018-04-16T03:20:05.614Z,0
2018-04-16T03:21:05.091Z,0
2018-04-16T03:22:05.344Z,0
2018-04-16T03:23:05.343Z,0
2018-04-16T03:24:05.328Z,0
2018-04-16T03:25:05.827Z,0
2018-04-16T03:26:05.901Z,0
2018-04-16T03:27:05.301Z,0
2018-04-16T03:28:05.817Z,0
2018-04-16T03:29:05.795Z,0
2018-04-16T03:30:05.283Z,0
2018-04-16T03:31:05.278Z,0
2018-04-16T03:32:05.513Z,0
2018-04-16T03:33:05.509Z,0
2018-04-16T03:34:05.764Z,0
2018-04-16T03:35:05.080Z,0
2018-04-16T03:36:05.494Z,0
2018-04-16T03:37:05.743Z,0
2018-04-16T03:38:05.735Z,0
2018-04-16T03:39:05.218Z,0
2018-04-16T03:40:04.943Z,0
2018-04-16T03:41:05.190Z,0
2018-04-16T03:42:05.704Z,0
2018-04-16T03:43:05.698Z,0
2018-04-16T03:44:05.418Z,0
2018-04-16T03:45:05.674Z,0
2018-04-16T03:46:05.147Z,0
2018-04-16T03:47:05.145Z,0
2018-04-16T03:48:05.391Z,0
2018-04-16T03:49:05.390Z,0
2018-04-16T03:50:05.113Z,0
2018-04-16T03:51:05.362Z,0
2018-04-16T03:52:05.102Z,0
2018-04-16T03:53:05.361Z,0
2018-04-16T03:54:05.597Z,0
2018-04-16T03:55:05.079Z,0
2018-04-16T03:56:05.076Z,0
2018-04-16T03:57:05.331Z,0
2018-04-16T03:58:05.313Z,0
2018-04-16T03:59:05.568Z,0
2018-04-16T04:00:05.312Z,0
2018-04-16T04:01:05.561Z,0
2018-04-16T04:02:05.283Z,0
2018-04-16T04:03:05.028Z,0
2018-04-16T04:04:05.003Z,0
2018-04-16T04:05:05.522Z,0
2018-04-16T04:06:05.007Z,0
2018-04-16T04:07:05.239Z,0
2018-04-16T04:08:05.491Z,0
2018-04-16T04:09:05.023Z,0
2018-04-16T04:10:05.212Z,0
2018-04-16T04:11:05.463Z,0
2018-04-16T04:12:04.949Z,0
2018-04-16T04:13:04.674Z,0
2018-04-16T04:14:05.192Z,0
2018-04-16T04:15:04.945Z,0
2018-04-16T04:16:05.422Z,0
2018-04-16T04:17:04.904Z,0
2018-04-16T04:18:05.152Z,0
2018-04-16T04:19:04.888Z,0
2018-04-16T04:20:05.142Z,0
2018-04-16T04:21:05.150Z,0
2018-04-16T04:22:05.131Z,0
2018-04-16T04:23:05.137Z,0
2018-04-16T04:24:05.107Z,0
2018-04-16T04:25:05.285Z,0
2018-04-16T04:26:04.833Z,0
2018-04-16T04:27:04.566Z,0
2018-04-16T04:28:05.075Z,0
2018-04-16T04:29:05.080Z,0
2018-04-16T04:30:04.814Z,0
2018-04-16T04:31:05.050Z,0
2018-04-16T04:32:05.292Z,0
2018-04-16T04:33:05.034Z,0
2018-04-16T04:34:05.029Z,0
2018-04-16T04:35:05.032Z,5
2018-04-16T04:36:05.004Z,5
2018-04-16T04:37:05.263Z,5
2018-04-16T04:38:04.991Z,5
2018-04-16T04:39:04.997Z,5
2018-04-16T04:40:04.972Z,5
2018-04-16T04:41:05.231Z,5
2018-04-16T04:42:05.223Z,5
2018-04-16T04:43:04.960Z,5
2018-04-16T04:44:04.955Z,5
2018-04-16T04:45:04.682Z,5
2018-04-16T04:46:04.423Z,5
2018-04-16T04:47:04.675Z,5
2018-04-16T04:48:04.911Z,5
2018-04-16T04:49:04.907Z,5
2018-04-16T04:50:04.899Z,5
2018-04-16T04:51:04.630Z,5
2018-04-16T04:52:04.885Z,5
2018-04-16T04:53:04.503Z,5
2018-04-16T04:54:04.605Z,5
2018-04-16T04:55:05.113Z,5
2018-04-16T04:56:05.120Z,5
2018-04-16T04:57:05.110Z,5
2018-04-16T04:58:05.106Z,5
2018-04-16T04:59:04.051Z,5
2018-04-16T05:00:04.827Z,5
2018-04-16T05:01:04.556Z,5
2018-04-16T05:02:04.288Z,5
2018-04-16T05:03:04.795Z,5
2018-04-16T05:04:04.783Z,5
2018-04-16T05:05:05.034Z,5
2018-04-16T05:06:04.510Z,5
2018-04-16T05:07:05.045Z,5
2018-04-16T05:08:04.755Z,5
2018-04-16T05:09:04.486Z,5
2018-04-16T05:10:05.012Z,5
2018-04-16T05:11:04.727Z,10
2018-04-16T05:12:04.723Z,10
2018-04-16T05:13:04.973Z,10
2018-04-16T05:14:04.712Z,10
2018-04-16T05:15:04.700Z,10
2018-04-16T05:16:04.949Z,10
2018-04-16T05:17:04.698Z,10
2018-04-16T05:18:04.930Z,10
2018-04-16T05:19:04.413Z,10
2018-04-16T05:20:04.395Z,15
2018-04-16T05:21:04.134Z,15
2018-04-16T05:22:04.128Z,10
2018-04-16T05:23:04.370Z,10
2018-04-16T05:24:04.886Z,10
2018-04-16T05:25:04.357Z,10
2018-04-16T05:26:04.622Z,10
2018-04-16T05:27:04.349Z,10
2018-04-16T05:28:04.595Z,15
2018-04-16T05:29:04.585Z,20
2018-04-16T05:30:04.590Z,20
2018-04-16T05:31:04.573Z,25
2018-04-16T05:32:04.305Z,25
2018-04-16T05:33:04.305Z,25
2018-04-16T05:34:04.556Z,25
2018-04-16T05:35:04.026Z,30
2018-04-16T05:36:04.536Z,30
2018-04-16T05:37:04.790Z,25
2018-04-16T05:38:04.259Z,25
2018-04-16T05:39:04.259Z,25
2018-04-16T05:40:03.990Z,30
2018-04-16T05:41:04.490Z,30
2018-04-16T05:42:04.753Z,25
2018-04-16T05:43:03.960Z,25
2018-04-16T05:44:03.955Z,25
2018-04-16T05:45:04.200Z,25
2018-04-16T05:46:03.944Z,25
2018-04-16T05:47:04.232Z,30
2018-04-16T05:48:04.444Z,30
2018-04-16T05:49:03.914Z,30
2018-04-16T05:50:04.422Z,30
2018-04-16T05:51:04.161Z,30
2018-04-16T05:52:04.403Z,30
2018-04-16T05:53:04.137Z,30
2018-04-16T05:54:04.139Z,35
2018-04-16T05:55:04.642Z,35
2018-04-16T05:56:03.860Z,35
2018-04-16T05:57:04.372Z,35
2018-04-16T05:58:04.612Z,30
2018-04-16T05:59:04.347Z,30
2018-04-16T06:00:04.595Z,25
2018-04-16T06:01:04.601Z,25
2018-04-16T06:02:03.828Z,25
2018-04-16T06:03:04.581Z,25
2018-04-16T06:04:04.323Z,25
2018-04-16T06:05:04.570Z,25
2018-04-16T06:06:04.051Z,25
2018-04-16T06:07:04.306Z,25
2018-04-16T06:08:04.282Z,25
2018-04-16T06:09:04.282Z,25
2018-04-16T06:10:04.008Z,25
2018-04-16T06:11:04.263Z,25
2018-04-16T06:12:03.997Z,20
2018-04-16T06:13:03.983Z,20
2018-04-16T06:14:03.464Z,20
2018-04-16T06:15:04.487Z,20
2018-04-16T06:16:03.961Z,20
2018-04-16T06:17:04.475Z,20
2018-04-16T06:18:04.212Z,25
2018-04-16T06:19:04.275Z,25
2018-04-16T06:20:04.456Z,20
2018-04-16T06:21:03.931Z,25
2018-04-16T06:22:04.179Z,25
2018-04-16T06:23:04.169Z,20
2018-04-16T06:24:03.908Z,20
2018-04-16T06:25:04.158Z,20
2018-04-16T06:26:04.143Z,20
2018-04-16T06:27:04.136Z,20
2018-04-16T06:28:04.392Z,25
2018-04-16T06:29:04.169Z,30
2018-04-16T06:30:04.377Z,30
2018-04-16T06:31:04.108Z,35
2018-04-16T06:32:03.842Z,40
2018-04-16T06:33:04.098Z,45
2018-04-16T06:34:03.822Z,40
2018-04-16T06:35:03.819Z,40
2018-04-16T06:36:03.808Z,55
2018-04-16T06:37:04.684Z,55
2018-04-16T06:38:04.045Z,55
2018-04-16T06:39:03.268Z,50
2018-04-16T06:40:04.030Z,50
2018-04-16T06:41:04.027Z,65
2018-04-16T06:42:03.773Z,65
2018-04-16T06:43:03.494Z,60
2018-04-16T06:44:03.769Z,65
2018-04-16T06:45:03.480Z,75
2018-04-16T06:46:03.473Z,65
2018-04-16T06:47:03.723Z,60
2018-04-16T06:48:03.719Z,60
2018-04-16T06:49:03.704Z,50
2018-04-16T06:50:03.701Z,50
2018-04-16T06:51:03.941Z,50
2018-04-16T06:52:03.937Z,45
2018-04-16T06:53:04.220Z,45
2018-04-16T06:54:04.212Z,45
2018-04-16T06:55:03.657Z,45
2018-04-16T06:56:04.219Z,45
2018-04-16T06:57:03.653Z,55
2018-04-16T06:58:04.158Z,50
2018-04-16T06:59:03.884Z,45
2018-04-16T07:00:04.196Z,50
2018-04-16T07:01:04.253Z,60
2018-04-16T07:02:04.059Z,70
2018-04-16T07:03:03.351Z,60
2018-04-16T07:04:03.690Z,60
2018-04-16T07:05:04.161Z,75
2018-04-16T07:06:03.588Z,65
2018-04-16T07:07:03.849Z,70
2018-04-16T07:08:03.830Z,55
2018-04-16T07:09:03.846Z,55
2018-04-16T07:10:03.906Z,45
2018-04-16T07:11:03.812Z,40
2018-04-16T07:12:03.821Z,35
2018-04-16T07:13:04.033Z,30
2018-04-16T07:14:03.828Z,30
2018-04-16T07:15:03.764Z,35
2018-04-16T07:16:04.337Z,35
2018-04-16T07:17:04.009Z,40
2018-04-16T07:18:03.515Z,40
2018-04-16T07:19:04.023Z,35
2018-04-16T07:20:03.753Z,30
2018-04-16T07:21:03.757Z,25
2018-04-16T07:22:03.460Z,25
2018-04-16T07:23:03.739Z,30
2018-04-16T07:24:03.715Z,40
2018-04-16T07:25:03.936Z,40
2018-04-16T07:26:03.426Z,30
2018-04-16T07:27:03.726Z,35
2018-04-16T07:28:03.699Z,45
2018-04-16T07:29:03.651Z,40
2018-04-16T07:30:03.645Z,45
2018-04-16T07:31:03.633Z,55
2018-04-16T07:32:03.364Z,50
2018-04-16T07:33:03.618Z,55
2018-04-16T07:34:03.908Z,55
2018-04-16T07:35:03.342Z,60
2018-04-16T07:36:03.853Z,60
2018-04-16T07:37:03.598Z,60
2018-04-16T07:38:03.320Z,60
2018-04-16T07:39:03.312Z,70
2018-04-16T07:40:03.562Z,60
2018-04-16T07:41:03.559Z,55
2018-04-16T07:42:03.818Z,50
2018-04-16T07:43:03.536Z,45
2018-04-16T07:44:03.529Z,45
2018-04-16T07:45:03.539Z,40
2018-04-16T07:46:03.526Z,40
2018-04-16T07:47:03.502Z,45
2018-04-16T07:48:03.764Z,45
2018-04-16T07:49:03.378Z,50
2018-04-16T07:50:03.224Z,50
2018-04-16T07:51:03.473Z,60
2018-04-16T07:52:03.742Z,55
2018-04-16T07:53:03.200Z,55
2018-04-16T07:54:02.930Z,70
2018-04-16T07:55:02.925Z,75
2018-04-16T07:56:03.171Z,75
2018-04-16T07:57:03.429Z,70
2018-04-16T07:58:03.418Z,95
2018-04-16T07:59:03.403Z,120
2018-04-16T08:00:03.401Z,80
2018-04-16T08:01:03.650Z,75
2018-04-16T08:02:03.128Z,80
2018-04-16T08:03:03.387Z,80
2018-04-16T08:04:03.370Z,65
2018-04-16T08:05:03.654Z,65
2018-04-16T08:06:03.348Z,50
2018-04-16T08:07:03.603Z,40
2018-04-16T08:08:03.075Z,40
2018-04-16T08:09:03.598Z,50
2018-04-16T08:10:03.504Z,60
2018-04-16T08:11:03.568Z,55
2018-04-16T08:12:02.794Z,55
2018-04-16T08:13:03.310Z,50
2018-04-16T08:14:03.283Z,40
2018-04-16T08:15:03.274Z,35
2018-04-16T08:16:03.691Z,35
2018-04-16T08:17:03.259Z,45
2018-04-16T08:18:03.262Z,55
2018-04-16T08:19:03.245Z,65
2018-04-16T08:20:03.527Z,85
2018-04-16T08:21:03.499Z,80
2018-04-16T08:22:02.964Z,55
2018-04-16T08:23:02.959Z,40
2018-04-16T08:24:03.204Z,40
2018-04-16T08:25:03.457Z,50
2018-04-16T08:26:02.931Z,55
2018-04-16T08:27:03.643Z,60
2018-04-16T08:28:03.428Z,85
2018-04-16T08:29:03.420Z,75
2018-04-16T08:30:02.895Z,50
2018-04-16T08:31:02.897Z,60
2018-04-16T08:32:02.895Z,65
2018-04-16T08:33:02.876Z,60
2018-04-16T08:34:02.866Z,65
2018-04-16T08:35:03.122Z,65
2018-04-16T08:36:02.589Z,70
2018-04-16T08:37:02.587Z,75
2018-04-16T08:38:03.393Z,65
2018-04-16T08:39:03.079Z,85
2018-04-16T08:40:03.345Z,95
2018-04-16T08:41:03.323Z,80
2018-04-16T08:42:02.537Z,100
2018-04-16T08:43:02.794Z,100
2018-04-16T08:44:03.043Z,90
2018-04-16T08:45:02.791Z,85
2018-04-16T08:46:02.504Z,80
2018-04-16T08:47:03.022Z,80
2018-04-16T08:48:02.742Z,65
2018-04-16T08:49:02.741Z,70
2018-04-16T08:50:03.250Z,85
2018-04-16T08:51:03.233Z,95
2018-04-16T08:52:02.980Z,80
2018-04-16T08:53:03.235Z,90
2018-04-16T08:54:02.969Z,70
2018-04-16T08:55:02.950Z,75
2018-04-16T08:56:02.689Z,60
2018-04-16T08:57:03.201Z,70
2018-04-16T08:58:03.185Z,75
2018-04-16T08:59:02.921Z,105
2018-04-16T09:00:03.164Z,110
2018-04-16T09:01:02.386Z,125
2018-04-16T09:02:02.891Z,145
2018-04-16T09:03:02.895Z,155
2018-04-16T09:04:02.883Z,145
2018-04-16T09:05:02.862Z,160
2018-04-16T09:06:02.860Z,145
2018-04-16T09:07:03.105Z,155
2018-04-16T09:08:02.835Z,150
2018-04-16T09:09:02.576Z,135
2018-04-16T09:10:02.571Z,135
2018-04-16T09:11:02.819Z,125
2018-04-16T09:12:03.076Z,185
2018-04-16T09:13:02.549Z,275
2018-04-16T09:14:03.048Z,250
2018-04-16T09:15:03.048Z,235
2018-04-16T09:16:03.027Z,290
2018-04-16T09:17:02.766Z,295
2018-04-16T09:18:03.010Z,320
2018-04-16T09:19:02.497Z,295
2018-04-16T09:20:02.492Z,300
2018-04-16T09:21:02.736Z,260
2018-04-16T09:22:02.728Z,210
2018-04-16T09:23:03.028Z,185
2018-04-16T09:24:02.451Z,175
2018-04-16T09:25:02.451Z,180
2018-04-16T09:26:02.439Z,175
2018-04-16T09:27:02.952Z,150
2018-04-16T09:28:02.429Z,120
2018-04-16T09:29:02.934Z,140
2018-04-16T09:30:02.663Z,125
2018-04-16T09:31:02.660Z,125
2018-04-16T09:32:02.906Z,155
2018-04-16T09:33:02.795Z,175
2018-04-16T09:34:02.631Z,190
2018-04-16T09:35:02.886Z,175
2018-04-16T09:36:02.616Z,185
2018-04-16T09:37:02.355Z,210
2018-04-16T09:38:02.396Z,255
2018-04-16T09:39:02.337Z,240
2018-04-16T09:40:02.600Z,255
2018-04-16T09:41:02.321Z,300
2018-04-16T09:42:02.846Z,310
2018-04-16T09:43:02.819Z,340
2018-04-16T09:44:02.807Z,315
2018-04-16T09:45:02.545Z,300
2018-04-16T09:46:02.789Z,255
2018-04-16T09:47:02.526Z,205
2018-04-16T09:48:02.003Z,155
2018-04-16T09:49:02.511Z,125
2018-04-16T09:50:02.504Z,125
2018-04-16T09:51:02.759Z,140
2018-04-16T09:52:02.750Z,170
2018-04-16T09:53:02.745Z,125
2018-04-16T09:54:02.472Z,135
2018-04-16T09:55:02.212Z,125
2018-04-16T09:56:02.584Z,165
2018-04-16T09:57:02.451Z,180
2018-04-16T09:58:02.439Z,165
2018-04-16T09:59:02.429Z,130
2018-04-16T10:00:01.906Z,105
2018-04-16T10:01:02.596Z,150
2018-04-16T10:02:02.667Z,175
2018-04-16T10:03:02.655Z,130
2018-04-16T10:04:02.654Z,85
2018-04-16T10:05:02.391Z,60
2018-04-16T10:06:02.175Z,60
2018-04-16T10:07:02.632Z,55
2018-04-16T10:08:01.855Z,50
2018-04-16T10:09:02.103Z,50
2018-04-16T10:10:02.091Z,60
2018-04-16T10:11:02.081Z,80
2018-04-16T10:12:02.341Z,70
2018-04-16T10:13:02.061Z,70
2018-04-16T10:14:02.308Z,55
2018-04-16T10:15:02.567Z,45
2018-04-16T10:16:02.291Z,40
2018-04-16T10:17:02.283Z,40
2018-04-16T10:18:02.709Z,40
2018-04-16T10:19:02.026Z,65
2018-04-16T10:20:02.268Z,100
2018-04-16T10:21:02.259Z,110
2018-04-16T10:22:01.733Z,115
2018-04-16T10:23:02.232Z,140
2018-04-16T10:24:02.219Z,150
2018-04-16T10:25:02.232Z,145
2018-04-16T10:26:02.460Z,195
2018-04-16T10:27:02.204Z,195
2018-04-16T10:28:02.198Z,235
2018-04-16T10:29:01.933Z,205
2018-04-16T10:30:02.174Z,175
2018-04-16T10:31:02.173Z,145
2018-04-16T10:32:02.160Z,115
2018-04-16T10:33:02.407Z,110
2018-04-16T10:34:01.879Z,165
2018-04-16T10:35:02.134Z,195
2018-04-16T10:36:02.124Z,210
2018-04-16T10:37:02.119Z,215
2018-04-16T10:38:02.103Z,200
2018-04-16T10:39:02.358Z,215
2018-04-16T10:40:01.835Z,245
2018-04-16T10:41:01.900Z,240
2018-04-16T10:42:02.078Z,240
2018-04-16T10:43:01.812Z,230
2018-04-16T10:44:02.063Z,210
2018-04-16T10:45:02.054Z,185
2018-04-16T10:46:01.784Z,205
2018-04-16T10:47:02.025Z,230
2018-04-16T10:48:02.026Z,245
2018-04-16T10:49:02.018Z,235
2018-04-16T10:50:01.242Z,200
2018-04-16T10:51:02.256Z,200
2018-04-16T10:52:02.001Z,215
2018-04-16T10:53:02.245Z,165
2018-04-16T10:54:01.714Z,155
2018-04-16T10:55:01.709Z,150
2018-04-16T10:56:02.223Z,195
2018-04-16T10:57:01.697Z,200
2018-04-16T10:58:01.185Z,200
2018-04-16T10:59:02.212Z,215
2018-04-16T11:00:02.191Z,215
2018-04-16T11:01:02.338Z,210
2018-04-16T11:02:01.921Z,230
2018-04-16T11:03:02.167Z,285
2018-04-16T11:04:01.649Z,275
2018-04-16T11:05:01.886Z,245
2018-04-16T11:06:01.620Z,270
2018-04-16T11:07:01.877Z,225
2018-04-16T11:08:01.611Z,240
2018-04-16T11:09:01.856Z,215
2018-04-16T11:10:01.864Z,195
2018-04-16T11:11:01.866Z,235
2018-04-16T11:12:01.319Z,240
2018-04-16T11:13:01.571Z,215
2018-04-16T11:14:01.827Z,230
2018-04-16T11:15:02.075Z,220
2018-04-16T11:16:02.104Z,210
2018-04-16T11:17:01.802Z,210
2018-04-16T11:18:02.061Z,195
2018-04-16T11:19:01.526Z,190
2018-04-16T11:20:01.781Z,165
2018-04-16T11:21:02.021Z,160
2018-04-16T11:22:01.512Z,180
2018-04-16T11:23:01.756Z,195
2018-04-16T11:24:01.747Z,285
2018-04-16T11:25:01.754Z,280
2018-04-16T11:26:01.987Z,300
2018-04-16T11:27:01.729Z,285
2018-04-16T11:28:01.724Z,250
2018-04-16T11:29:01.983Z,200
2018-04-16T11:30:01.454Z,180
2018-04-16T11:31:01.433Z,185
2018-04-16T11:32:01.689Z,155
2018-04-16T11:33:01.166Z,190
2018-04-16T11:34:01.672Z,235
2018-04-16T11:35:01.667Z,230
2018-04-16T11:36:01.656Z,200
2018-04-16T11:37:01.656Z,215
2018-04-16T11:38:02.061Z,200
2018-04-16T11:39:01.638Z,195
2018-04-16T11:40:01.365Z,185
2018-04-16T11:41:01.620Z,215
2018-04-16T11:42:01.625Z,205
2018-04-16T11:43:01.356Z,195
2018-04-16T11:44:01.346Z,180
2018-04-16T11:45:01.595Z,210
2018-04-16T11:46:01.583Z,175
2018-04-16T11:47:01.059Z,165
2018-04-16T11:48:01.314Z,225
2018-04-16T11:49:01.820Z,225
2018-04-16T11:50:01.038Z,230
2018-04-16T11:51:01.564Z,225
2018-04-16T11:52:01.806Z,220
2018-04-16T11:53:01.531Z,215
2018-04-16T11:54:01.518Z,225
2018-04-16T11:55:00.999Z,220
2018-04-16T11:56:01.555Z,210
2018-04-16T11:57:01.761Z,205
2018-04-16T11:58:01.490Z,185
2018-04-16T11:59:01.496Z,175
2018-04-16T12:00:01.226Z,185
2018-04-16T12:01:01.219Z,190
2018-04-16T12:02:01.206Z,195
2018-04-16T12:03:01.464Z,175
2018-04-16T12:04:01.449Z,155
2018-04-16T12:05:01.183Z,175
2018-04-16T12:06:00.919Z,185
2018-04-16T12:07:01.690Z,180
2018-04-16T12:08:01.693Z,175
2018-04-16T12:09:01.464Z,165
2018-04-16T12:10:01.661Z,155
2018-04-16T12:11:01.645Z,165
2018-04-16T12:12:01.391Z,160
2018-04-16T12:13:01.378Z,155
2018-04-16T12:14:01.388Z,150
2018-04-16T12:15:01.369Z,140
2018-04-16T12:16:01.625Z,115
2018-04-16T12:17:01.100Z,115
2018-04-16T12:18:01.364Z,95
2018-04-16T12:19:01.339Z,95
2018-04-16T12:20:01.082Z,95
2018-04-16T12:21:01.076Z,90
2018-04-16T12:22:01.580Z,85
2018-04-16T12:23:01.577Z,105
2018-04-16T12:24:01.654Z,130
2018-04-16T12:25:01.305Z,145
2018-04-16T12:26:00.836Z,150
2018-04-16T12:27:01.315Z,135
2018-04-16T12:28:01.318Z,100
2018-04-16T12:29:00.754Z,95
2018-04-16T12:30:01.320Z,100
2018-04-16T12:31:01.248Z,105
2018-04-16T12:32:00.995Z,110
2018-04-16T12:33:01.290Z,105
2018-04-16T12:34:00.981Z,85
2018-04-16T12:35:01.044Z,85
2018-04-16T12:36:00.970Z,90
2018-04-16T12:37:01.216Z,95
2018-04-16T12:38:00.959Z,100
2018-04-16T12:39:01.233Z,125
2018-04-16T12:40:01.192Z,130
2018-04-16T12:41:01.443Z,125
2018-04-16T12:42:00.915Z,120
2018-04-16T12:43:01.170Z,115
2018-04-16T12:44:01.155Z,120
2018-04-16T12:45:01.151Z,150
2018-04-16T12:46:01.412Z,155
2018-04-16T12:47:01.142Z,155
2018-04-16T12:48:00.980Z,155
2018-04-16T12:49:01.377Z,140
2018-04-16T12:50:01.118Z,125
2018-04-16T12:51:01.123Z,120
2018-04-16T12:52:01.366Z,140
2018-04-16T12:53:01.090Z,145
2018-04-16T12:54:01.085Z,135
2018-04-16T12:55:01.075Z,145
2018-04-16T12:56:01.076Z,145
2018-04-16T12:57:01.067Z,145
2018-04-16T12:58:01.055Z,155
2018-04-16T12:59:01.057Z,155
2018-04-16T13:00:01.310Z,145
2018-04-16T13:01:01.292Z,145
2018-04-16T13:02:01.026Z,145
2018-04-16T13:03:01.277Z,135
2018-04-16T13:04:01.274Z,125
2018-04-16T13:05:01.004Z,110
2018-04-16T13:06:00.492Z,100
2018-04-16T13:07:01.258Z,105
2018-04-16T13:08:00.789Z,110
2018-04-16T13:09:01.227Z,110
2018-04-16T13:10:00.972Z,95
2018-04-16T13:11:00.700Z,95
2018-04-16T13:12:00.698Z,95
2018-04-16T13:13:00.945Z,85
2018-04-16T13:14:00.944Z,75
2018-04-16T13:15:00.930Z,60
2018-04-16T13:16:01.188Z,55
2018-04-16T13:17:00.907Z,50
2018-04-16T13:18:00.916Z,45
2018-04-16T13:19:00.644Z,60
2018-04-16T13:20:01.151Z,75
2018-04-16T13:21:00.878Z,70
2018-04-16T13:22:00.881Z,75
2018-04-16T13:23:00.875Z,65
2018-04-16T13:24:01.110Z,80
2018-04-16T13:25:00.858Z,90
2018-04-16T13:26:01.099Z,95
2018-04-16T13:27:01.098Z,105
2018-04-16T13:28:00.579Z,105
2018-04-16T13:29:00.828Z,105
2018-04-16T13:30:01.080Z,105
2018-04-16T13:31:00.818Z,105
2018-04-16T13:32:00.800Z,110
2018-04-16T13:33:00.794Z,115
2018-04-16T13:34:00.543Z,115
2018-04-16T13:35:00.792Z,115
2018-04-16T13:36:00.512Z,110
2018-04-16T13:37:00.769Z,115
2018-04-16T13:38:00.507Z,115
2018-04-16T13:39:00.750Z,120
2018-04-16T13:40:00.749Z,120
2018-04-16T13:41:00.753Z,115
2018-04-16T13:42:00.733Z,115
2018-04-16T13:43:00.464Z,120
2018-04-16T13:44:00.968Z,125
2018-04-16T13:45:00.705Z,130
2018-04-16T13:46:00.999Z,130
2018-04-16T13:47:00.689Z,135
2018-04-16T13:48:00.676Z,130
2018-04-16T13:49:00.929Z,125
2018-04-16T13:50:00.146Z,120
2018-04-16T13:51:00.909Z,115
2018-04-16T13:52:00.392Z,115
2018-04-16T13:53:00.644Z,115
2018-04-16T13:54:00.891Z,120
2018-04-16T13:55:00.882Z,110
2018-04-16T13:56:00.616Z,105
2018-04-16T13:57:00.916Z,100
2018-04-16T13:58:00.627Z,100
2018-04-16T13:59:00.335Z,95
2018-04-16T14:00:00.333Z,95
2018-04-16T14:01:00.579Z,95
2018-04-16T14:02:00.567Z,90
2018-04-16T14:03:00.806Z,90
2018-04-16T14:04:00.296Z,90
2018-04-16T14:05:00.545Z,95
2018-04-16T14:06:00.545Z,100
2018-04-16T14:07:00.332Z,95
2018-04-16T14:08:00.527Z,95
2018-04-16T14:09:00.505Z,90
2018-04-16T14:10:00.516Z,85
2018-04-16T14:11:00.494Z,85
2018-04-16T14:12:00.550Z,90
2018-04-16T14:13:00.497Z,90
2018-04-16T14:14:00.211Z,85
2018-04-16T14:15:00.719Z,85
2018-04-16T14:16:00.475Z,90
2018-04-16T14:17:00.455Z,100